sensor_id;sensor_type;location;lat;lon;timestamp;temperature;humidity
49222;DHT22;35047;37.588;-122.048;2023-04-01T00:01:16;22.80;44.30
49222;DHT22;35047;37.588;-122.048;2023-04-01T00:03:43;22.70;44.20
49222;DHT22;35047;37.588;-122.048;2023-04-01T00:06:12;22.80;44.50
49222;DHT22;35047;37.588;-122.048;2023-04-01T00:08:40;22.70;44.60
49222;DHT22;35047;37.588;-122.048;2023-04-01T00:11:07;22.70;44.50
49222;DHT22;35047;37.588;-122.048;2023-04-01T00:13:33;22.70;44.00
49222;DHT22;35047;37.588;-122.048;2023-04-01T00:16:00;22.50;43.80
49222;DHT22;35047;37.588;-122.048;2023-04-01T00:18:27;22.50;44.40
49222;DHT22;35047;37.588;-122.048;2023-04-01T00:20:54;22.50;44.20
49222;DHT22;35047;37.588;-122.048;2023-04-01T00:23:21;22.60;43.90
49222;DHT22;35047;37.588;-122.048;2023-04-01T00:25:48;22.70;44.50
49222;DHT22;35047;37.588;-122.048;2023-04-01T00:28:17;22.60;43.30
49222;DHT22;35047;37.588;-122.048;2023-04-01T00:30:44;22.60;43.20
49222;DHT22;35047;37.588;-122.048;2023-04-01T00:33:11;22.60;43.40
49222;DHT22;35047;37.588;-122.048;2023-04-01T00:35:38;22.60;42.60
49222;DHT22;35047;37.588;-122.048;2023-04-01T00:38:05;22.60;42.90
49222;DHT22;35047;37.588;-122.048;2023-04-01T00:40:38;22.50;42.70
49222;DHT22;35047;37.588;-122.048;2023-04-01T00:43:13;22.50;43.60
49222;DHT22;35047;37.588;-122.048;2023-04-01T00:45:42;22.50;43.30
49222;DHT22;35047;37.588;-122.048;2023-04-01T00:48:13;22.50;44.10
49222;DHT22;35047;37.588;-122.048;2023-04-01T00:50:49;22.60;43.70
49222;DHT22;35047;37.588;-122.048;2023-04-01T00:53:18;22.70;43.80
49222;DHT22;35047;37.588;-122.048;2023-04-01T00:56:06;22.70;43.80
49222;DHT22;35047;37.588;-122.048;2023-04-01T00:58:38;22.70;43.00
49222;DHT22;35047;37.588;-122.048;2023-04-01T01:01:08;22.80;43.40
49222;DHT22;35047;37.588;-122.048;2023-04-01T01:03:35;22.70;42.70
49222;DHT22;35047;37.588;-122.048;2023-04-01T01:12:22;22.60;44.10
49222;DHT22;35047;37.588;-122.048;2023-04-01T01:34:40;22.80;44.00
49222;DHT22;35047;37.588;-122.048;2023-04-01T01:37:14;22.80;43.40
49222;DHT22;35047;37.588;-122.048;2023-04-01T01:39:44;22.80;43.90
49222;DHT22;35047;37.588;-122.048;2023-04-01T01:42:15;22.80;44.00
49222;DHT22;35047;37.588;-122.048;2023-04-01T01:44:44;22.80;44.10
49222;DHT22;35047;37.588;-122.048;2023-04-01T01:47:12;22.70;43.80
49222;DHT22;35047;37.588;-122.048;2023-04-01T01:49:41;22.70;44.30
49222;DHT22;35047;37.588;-122.048;2023-04-01T01:52:08;22.70;44.20
49222;DHT22;35047;37.588;-122.048;2023-04-01T01:54:35;22.50;44.10
49222;DHT22;35047;37.588;-122.048;2023-04-01T01:57:07;22.30;44.50
49222;DHT22;35047;37.588;-122.048;2023-04-01T01:59:36;22.10;45.10
49222;DHT22;35047;37.588;-122.048;2023-04-01T02:02:06;21.90;45.20
49222;DHT22;35047;37.588;-122.048;2023-04-01T02:04:39;21.90;45.30
49222;DHT22;35047;37.588;-122.048;2023-04-01T02:07:18;21.70;45.20
49222;DHT22;35047;37.588;-122.048;2023-04-01T02:09:48;21.60;45.40
49222;DHT22;35047;37.588;-122.048;2023-04-01T02:12:17;21.50;45.70
49222;DHT22;35047;37.588;-122.048;2023-04-01T02:15:05;21.40;45.60
49222;DHT22;35047;37.588;-122.048;2023-04-01T02:17:34;21.30;45.60
49222;DHT22;35047;37.588;-122.048;2023-04-01T02:20:24;21.10;46.00
49222;DHT22;35047;37.588;-122.048;2023-04-01T02:22:55;21.10;46.40
49222;DHT22;35047;37.588;-122.048;2023-04-01T02:25:29;20.90;46.60
49222;DHT22;35047;37.588;-122.048;2023-04-01T02:27:58;20.90;47.10
49222;DHT22;35047;37.588;-122.048;2023-04-01T02:30:27;20.80;47.40
49222;DHT22;35047;37.588;-122.048;2023-04-01T02:32:56;20.80;47.20
49222;DHT22;35047;37.588;-122.048;2023-04-01T02:35:23;20.70;47.20
49222;DHT22;35047;37.588;-122.048;2023-04-01T02:37:52;20.50;47.30
49222;DHT22;35047;37.588;-122.048;2023-04-01T02:40:20;20.50;47.30
49222;DHT22;35047;37.588;-122.048;2023-04-01T02:42:46;20.40;47.90
49222;DHT22;35047;37.588;-122.048;2023-04-01T02:45:13;20.30;48.00
49222;DHT22;35047;37.588;-122.048;2023-04-01T02:47:41;20.20;48.60
49222;DHT22;35047;37.588;-122.048;2023-04-01T02:50:07;20.30;48.70
49222;DHT22;35047;37.588;-122.048;2023-04-01T02:52:34;20.30;48.80
49222;DHT22;35047;37.588;-122.048;2023-04-01T02:55:01;20.30;48.80
49222;DHT22;35047;37.588;-122.048;2023-04-01T02:57:27;20.20;49.30
49222;DHT22;35047;37.588;-122.048;2023-04-01T02:59:54;20.10;49.70
49222;DHT22;35047;37.588;-122.048;2023-04-01T03:02:21;20.00;50.20
49222;DHT22;35047;37.588;-122.048;2023-04-01T03:04:47;20.00;50.50
49222;DHT22;35047;37.588;-122.048;2023-04-01T03:07:14;19.90;50.60
49222;DHT22;35047;37.588;-122.048;2023-04-01T03:09:40;19.90;50.80
49222;DHT22;35047;37.588;-122.048;2023-04-01T03:12:07;19.80;51.00
49222;DHT22;35047;37.588;-122.048;2023-04-01T03:14:33;19.80;51.60
49222;DHT22;35047;37.588;-122.048;2023-04-01T03:17:00;19.80;51.50
49222;DHT22;35047;37.588;-122.048;2023-04-01T03:19:27;19.70;51.30
49222;DHT22;35047;37.588;-122.048;2023-04-01T03:21:53;19.70;51.70
49222;DHT22;35047;37.588;-122.048;2023-04-01T03:24:20;19.70;52.10
49222;DHT22;35047;37.588;-122.048;2023-04-01T03:26:47;19.70;52.20
49222;DHT22;35047;37.588;-122.048;2023-04-01T03:29:14;19.60;52.30
49222;DHT22;35047;37.588;-122.048;2023-04-01T03:31:41;19.60;52.30
49222;DHT22;35047;37.588;-122.048;2023-04-01T03:34:08;19.50;52.50
49222;DHT22;35047;37.588;-122.048;2023-04-01T03:36:35;19.50;52.80
49222;DHT22;35047;37.588;-122.048;2023-04-01T03:39:03;19.50;52.90
49222;DHT22;35047;37.588;-122.048;2023-04-01T03:41:29;19.50;53.30
49222;DHT22;35047;37.588;-122.048;2023-04-01T03:43:56;19.50;53.40
49222;DHT22;35047;37.588;-122.048;2023-04-01T03:46:23;19.50;53.70
49222;DHT22;35047;37.588;-122.048;2023-04-01T03:48:49;19.50;54.40
49222;DHT22;35047;37.588;-122.048;2023-04-01T03:51:16;19.40;54.10
49222;DHT22;35047;37.588;-122.048;2023-04-01T03:53:42;19.40;54.30
49222;DHT22;35047;37.588;-122.048;2023-04-01T03:56:09;19.40;54.80
49222;DHT22;35047;37.588;-122.048;2023-04-01T03:58:36;19.40;54.90
49222;DHT22;35047;37.588;-122.048;2023-04-01T04:01:13;19.40;54.90
49222;DHT22;35047;37.588;-122.048;2023-04-01T04:03:40;19.40;54.90
49222;DHT22;35047;37.588;-122.048;2023-04-01T04:06:11;19.40;55.00
49222;DHT22;35047;37.588;-122.048;2023-04-01T04:08:38;19.30;55.10
49222;DHT22;35047;37.588;-122.048;2023-04-01T04:11:05;19.30;55.40
49222;DHT22;35047;37.588;-122.048;2023-04-01T04:13:32;19.30;55.50
49222;DHT22;35047;37.588;-122.048;2023-04-01T04:15:58;19.30;55.80
49222;DHT22;35047;37.588;-122.048;2023-04-01T04:18:25;19.30;55.70
49222;DHT22;35047;37.588;-122.048;2023-04-01T04:20:51;19.20;55.80
49222;DHT22;35047;37.588;-122.048;2023-04-01T04:23:18;19.20;56.10
49222;DHT22;35047;37.588;-122.048;2023-04-01T04:26:14;19.20;56.40
49222;DHT22;35047;37.588;-122.048;2023-04-01T04:28:41;19.20;56.40
49222;DHT22;35047;37.588;-122.048;2023-04-01T04:31:07;19.20;56.60
49222;DHT22;35047;37.588;-122.048;2023-04-01T04:33:34;19.20;56.90
49222;DHT22;35047;37.588;-122.048;2023-04-01T04:36:01;19.20;57.00
49222;DHT22;35047;37.588;-122.048;2023-04-01T04:38:28;19.20;57.00
49222;DHT22;35047;37.588;-122.048;2023-04-01T04:40:55;19.10;57.10
49222;DHT22;35047;37.588;-122.048;2023-04-01T04:43:22;19.10;57.50
49222;DHT22;35047;37.588;-122.048;2023-04-01T04:45:48;19.10;57.40
49222;DHT22;35047;37.588;-122.048;2023-04-01T04:48:16;19.00;57.60
49222;DHT22;35047;37.588;-122.048;2023-04-01T04:50:51;19.00;57.90
49222;DHT22;35047;37.588;-122.048;2023-04-01T04:53:18;19.00;57.70
49222;DHT22;35047;37.588;-122.048;2023-04-01T04:55:47;18.90;58.00
49222;DHT22;35047;37.588;-122.048;2023-04-01T04:58:13;18.90;58.90
49222;DHT22;35047;37.588;-122.048;2023-04-01T05:00:40;18.90;58.30
49222;DHT22;35047;37.588;-122.048;2023-04-01T05:03:09;18.80;58.30
49222;DHT22;35047;37.588;-122.048;2023-04-01T05:05:36;18.80;58.50
49222;DHT22;35047;37.588;-122.048;2023-04-01T05:08:03;18.70;58.60
49222;DHT22;35047;37.588;-122.048;2023-04-01T05:10:29;18.70;59.10
49222;DHT22;35047;37.588;-122.048;2023-04-01T05:12:58;18.70;59.00
49222;DHT22;35047;37.588;-122.048;2023-04-01T05:15:24;18.60;58.90
49222;DHT22;35047;37.588;-122.048;2023-04-01T05:17:51;18.60;59.00
49222;DHT22;35047;37.588;-122.048;2023-04-01T05:20:17;18.50;58.90
49222;DHT22;35047;37.588;-122.048;2023-04-01T05:22:44;18.50;59.10
49222;DHT22;35047;37.588;-122.048;2023-04-01T05:25:11;18.40;59.30
49222;DHT22;35047;37.588;-122.048;2023-04-01T05:27:37;18.40;59.40
49222;DHT22;35047;37.588;-122.048;2023-04-01T05:30:05;18.40;59.50
49222;DHT22;35047;37.588;-122.048;2023-04-01T05:32:32;18.30;59.50
49222;DHT22;35047;37.588;-122.048;2023-04-01T05:34:59;18.30;59.50
49222;DHT22;35047;37.588;-122.048;2023-04-01T05:37:25;18.30;59.70
49222;DHT22;35047;37.588;-122.048;2023-04-01T05:39:52;18.20;59.70
49222;DHT22;35047;37.588;-122.048;2023-04-01T05:42:18;18.20;59.70
49222;DHT22;35047;37.588;-122.048;2023-04-01T05:44:45;18.10;59.80
49222;DHT22;35047;37.588;-122.048;2023-04-01T05:47:11;18.10;60.00
49222;DHT22;35047;37.588;-122.048;2023-04-01T05:49:38;18.00;59.90
49222;DHT22;35047;37.588;-122.048;2023-04-01T05:52:04;18.00;60.00
49222;DHT22;35047;37.588;-122.048;2023-04-01T05:54:33;17.90;60.00
49222;DHT22;35047;37.588;-122.048;2023-04-01T05:57:00;17.90;60.30
49222;DHT22;35047;37.588;-122.048;2023-04-01T05:59:27;17.80;60.20
49222;DHT22;35047;37.588;-122.048;2023-04-01T06:01:53;17.80;60.60
49222;DHT22;35047;37.588;-122.048;2023-04-01T06:04:20;17.80;60.10
49222;DHT22;35047;37.588;-122.048;2023-04-01T06:06:46;17.80;60.20
49222;DHT22;35047;37.588;-122.048;2023-04-01T06:09:21;17.70;60.60
49222;DHT22;35047;37.588;-122.048;2023-04-01T06:15:03;17.60;60.80
49222;DHT22;35047;37.588;-122.048;2023-04-01T06:17:41;17.60;61.00
49222;DHT22;35047;37.588;-122.048;2023-04-01T06:20:32;17.50;60.90
49222;DHT22;35047;37.588;-122.048;2023-04-01T06:54:26;16.90;62.50
49222;DHT22;35047;37.588;-122.048;2023-04-01T06:57:43;16.80;62.60
49222;DHT22;35047;37.588;-122.048;2023-04-01T06:59:51;16.90;62.60
49222;DHT22;35047;37.588;-122.048;2023-04-01T07:02:28;17.00;62.00
49222;DHT22;35047;37.588;-122.048;2023-04-01T07:04:58;17.00;61.80
49222;DHT22;35047;37.588;-122.048;2023-04-01T07:07:48;17.00;62.00
49222;DHT22;35047;37.588;-122.048;2023-04-01T07:10:27;17.00;62.20
49222;DHT22;35047;37.588;-122.048;2023-04-01T07:13:00;16.90;62.40
49222;DHT22;35047;37.588;-122.048;2023-04-01T07:15:39;16.80;62.20
49222;DHT22;35047;37.588;-122.048;2023-04-01T07:18:21;16.70;62.60
49222;DHT22;35047;37.588;-122.048;2023-04-01T07:20:49;16.70;63.00
49222;DHT22;35047;37.588;-122.048;2023-04-01T07:23:29;16.70;63.10
49222;DHT22;35047;37.588;-122.048;2023-04-01T07:26:07;16.60;62.80
49222;DHT22;35047;37.588;-122.048;2023-04-01T07:28:37;16.50;62.80
49222;DHT22;35047;37.588;-122.048;2023-04-01T07:34:26;16.40;63.30
49222;DHT22;35047;37.588;-122.048;2023-04-01T07:40:26;16.40;63.50
49222;DHT22;35047;37.588;-122.048;2023-04-01T07:46:07;16.30;63.70
49222;DHT22;35047;37.588;-122.048;2023-04-01T07:54:17;16.10;64.00
49222;DHT22;35047;37.588;-122.048;2023-04-01T07:57:06;16.10;64.30
49222;DHT22;35047;37.588;-122.048;2023-04-01T08:05:34;16.00;65.00
49222;DHT22;35047;37.588;-122.048;2023-04-01T08:11:11;15.90;65.00
49222;DHT22;35047;37.588;-122.048;2023-04-01T08:13:53;15.90;65.00
49222;DHT22;35047;37.588;-122.048;2023-04-01T08:22:17;15.80;65.10
49222;DHT22;35047;37.588;-122.048;2023-04-01T08:24:48;15.80;65.20
49222;DHT22;35047;37.588;-122.048;2023-04-01T08:27:21;15.70;65.00
49222;DHT22;35047;37.588;-122.048;2023-04-01T08:29:59;15.70;65.00
49222;DHT22;35047;37.588;-122.048;2023-04-01T08:32:57;15.70;65.00
49222;DHT22;35047;37.588;-122.048;2023-04-01T08:36:10;15.70;65.50
49222;DHT22;35047;37.588;-122.048;2023-04-01T08:38:30;15.70;66.30
49222;DHT22;35047;37.588;-122.048;2023-04-01T08:41:12;15.70;65.80
49222;DHT22;35047;37.588;-122.048;2023-04-01T09:00:43;15.40;66.30
49222;DHT22;35047;37.588;-122.048;2023-04-01T09:06:33;15.30;66.10
49222;DHT22;35047;37.588;-122.048;2023-04-01T09:17:41;15.20;66.50
49222;DHT22;35047;37.588;-122.048;2023-04-01T09:23:37;15.20;66.40
49222;DHT22;35047;37.588;-122.048;2023-04-01T09:26:25;15.20;66.50
49222;DHT22;35047;37.588;-122.048;2023-04-01T09:29:05;15.20;66.50
49222;DHT22;35047;37.588;-122.048;2023-04-01T09:40:02;15.10;66.50
49222;DHT22;35047;37.588;-122.048;2023-04-01T09:54:11;14.90;66.90
49222;DHT22;35047;37.588;-122.048;2023-04-01T09:56:59;14.90;66.90
49222;DHT22;35047;37.588;-122.048;2023-04-01T10:05:46;14.80;67.40
49222;DHT22;35047;37.588;-122.048;2023-04-01T10:11:22;14.80;67.30
49222;DHT22;35047;37.588;-122.048;2023-04-01T10:37:48;14.50;67.90
49222;DHT22;35047;37.588;-122.048;2023-04-01T10:52:04;14.50;67.80
49222;DHT22;35047;37.588;-122.048;2023-04-01T11:22:28;14.20;68.00
49222;DHT22;35047;37.588;-122.048;2023-04-01T12:04:00;14.10;69.70
49222;DHT22;35047;37.588;-122.048;2023-04-01T12:06:48;14.10;69.70
49222;DHT22;35047;37.588;-122.048;2023-04-01T12:23:29;14.00;69.40
49222;DHT22;35047;37.588;-122.048;2023-04-01T12:34:49;14.00;69.50
49222;DHT22;35047;37.588;-122.048;2023-04-01T12:38:13;13.90;69.50
49222;DHT22;35047;37.588;-122.048;2023-04-01T12:49:09;13.80;69.00
49222;DHT22;35047;37.588;-122.048;2023-04-01T13:03:53;13.80;69.30
49222;DHT22;35047;37.588;-122.048;2023-04-01T13:09:22;13.70;68.90
49222;DHT22;35047;37.588;-122.048;2023-04-01T13:19:53;13.70;69.60
49222;DHT22;35047;37.588;-122.048;2023-04-01T13:22:41;13.70;69.60
49222;DHT22;35047;37.588;-122.048;2023-04-01T13:25:44;13.60;69.70
49222;DHT22;35047;37.588;-122.048;2023-04-01T13:31:09;13.60;69.90
49222;DHT22;35047;37.588;-122.048;2023-04-01T13:34:08;13.60;69.90
49222;DHT22;35047;37.588;-122.048;2023-04-01T13:36:44;13.50;69.90
49222;DHT22;35047;37.588;-122.048;2023-04-01T13:42:28;13.50;70.00
49222;DHT22;35047;37.588;-122.048;2023-04-01T13:55:40;13.50;69.80
49222;DHT22;35047;37.588;-122.048;2023-04-01T14:28:41;13.50;70.60
49222;DHT22;35047;37.588;-122.048;2023-04-01T14:37:09;13.60;70.50
49222;DHT22;35047;37.588;-122.048;2023-04-01T14:45:26;13.70;70.90
49222;DHT22;35047;37.588;-122.048;2023-04-01T14:50:45;13.80;71.70
49222;DHT22;35047;37.588;-122.048;2023-04-01T14:56:00;13.90;72.10
49222;DHT22;35047;37.588;-122.048;2023-04-01T14:58:50;13.90;72.50
49222;DHT22;35047;37.588;-122.048;2023-04-01T15:28:50;14.90;72.90
49222;DHT22;35047;37.588;-122.048;2023-04-01T15:34:32;15.10;72.50
49222;DHT22;35047;37.588;-122.048;2023-04-01T15:37:28;15.20;72.50
49222;DHT22;35047;37.588;-122.048;2023-04-01T15:57:16;16.00;70.40
49222;DHT22;35047;37.588;-122.048;2023-04-01T16:03:00;16.20;70.30
49222;DHT22;35047;37.588;-122.048;2023-04-01T16:08:48;16.40;69.90
49222;DHT22;35047;37.588;-122.048;2023-04-01T16:20:20;16.80;68.60
49222;DHT22;35047;37.588;-122.048;2023-04-01T16:28:26;17.20;67.50
49222;DHT22;35047;37.588;-122.048;2023-04-01T16:31:08;17.30;67.60
49222;DHT22;35047;37.588;-122.048;2023-04-01T16:34:14;17.40;66.90
49222;DHT22;35047;37.588;-122.048;2023-04-01T16:39:47;17.70;66.80
49222;DHT22;35047;37.588;-122.048;2023-04-01T16:53:43;18.60;65.50
49222;DHT22;35047;37.588;-122.048;2023-04-01T17:02:00;19.30;62.00
49222;DHT22;35047;37.588;-122.048;2023-04-01T17:15:13;20.70;58.70
49222;DHT22;35047;37.588;-122.048;2023-04-01T17:17:51;20.90;56.30
49222;DHT22;35047;37.588;-122.048;2023-04-01T17:20:42;21.20;58.90
49222;DHT22;35047;37.588;-122.048;2023-04-01T17:23:32;21.40;57.10
49222;DHT22;35047;37.588;-122.048;2023-04-01T17:26:16;21.80;56.70
49222;DHT22;35047;37.588;-122.048;2023-04-01T17:42:22;23.20;52.20
49222;DHT22;35047;37.588;-122.048;2023-04-01T17:45:00;23.30;51.50
49222;DHT22;35047;37.588;-122.048;2023-04-01T17:50:21;23.80;53.50
49222;DHT22;35047;37.588;-122.048;2023-04-01T17:52:54;24.00;51.90
49222;DHT22;35047;37.588;-122.048;2023-04-01T17:55:36;24.10;50.10
49222;DHT22;35047;37.588;-122.048;2023-04-01T17:58:13;24.30;51.00
49222;DHT22;35047;37.588;-122.048;2023-04-01T18:15:46;24.60;49.80
49222;DHT22;35047;37.588;-122.048;2023-04-01T18:23:58;25.20;45.30
49222;DHT22;35047;37.588;-122.048;2023-04-01T18:26:34;25.20;44.70
49222;DHT22;35047;37.588;-122.048;2023-04-01T18:32:12;25.30;44.30
49222;DHT22;35047;37.588;-122.048;2023-04-01T18:37:23;25.30;44.20
49222;DHT22;35047;37.588;-122.048;2023-04-01T18:40:17;25.30;43.90
49222;DHT22;35047;37.588;-122.048;2023-04-01T18:45:59;25.40;43.40
49222;DHT22;35047;37.588;-122.048;2023-04-01T18:54:10;25.60;42.70
49222;DHT22;35047;37.588;-122.048;2023-04-01T18:56:43;25.60;42.10
49222;DHT22;35047;37.588;-122.048;2023-04-01T19:07:12;25.70;42.80
49222;DHT22;35047;37.588;-122.048;2023-04-01T19:09:46;25.70;41.80
49222;DHT22;35047;37.588;-122.048;2023-04-01T19:15:08;25.80;41.10
49222;DHT22;35047;37.588;-122.048;2023-04-01T19:26:09;26.20;41.70
49222;DHT22;35047;37.588;-122.048;2023-04-01T19:31:34;26.30;41.30
49222;DHT22;35047;37.588;-122.048;2023-04-01T19:34:18;26.30;41.90
49222;DHT22;35047;37.588;-122.048;2023-04-01T19:50:49;26.10;43.20
49222;DHT22;35047;37.588;-122.048;2023-04-01T19:56:20;26.20;43.60
49222;DHT22;35047;37.588;-122.048;2023-04-01T19:58:54;26.20;41.90
49222;DHT22;35047;37.588;-122.048;2023-04-01T20:01:36;26.30;43.90
49222;DHT22;35047;37.588;-122.048;2023-04-01T20:04:14;26.40;42.20
49222;DHT22;35047;37.588;-122.048;2023-04-01T20:07:24;26.50;42.10
49222;DHT22;35047;37.588;-122.048;2023-04-01T20:09:50;26.50;43.90
49222;DHT22;35047;37.588;-122.048;2023-04-01T20:15:45;26.60;42.50
49222;DHT22;35047;37.588;-122.048;2023-04-01T20:18:19;26.60;43.20
49222;DHT22;35047;37.588;-122.048;2023-04-01T20:23:53;26.60;42.80
49222;DHT22;35047;37.588;-122.048;2023-04-01T20:26:26;26.70;44.30
49222;DHT22;35047;37.588;-122.048;2023-04-01T20:38:19;27.00;42.40
49222;DHT22;35047;37.588;-122.048;2023-04-01T20:41:16;26.90;43.70
49222;DHT22;35047;37.588;-122.048;2023-04-01T20:44:04;27.00;43.20
49222;DHT22;35047;37.588;-122.048;2023-04-01T20:49:21;27.10;43.30
49222;DHT22;35047;37.588;-122.048;2023-04-01T20:52:17;27.20;42.60
49222;DHT22;35047;37.588;-122.048;2023-04-01T20:58:03;27.20;42.10
49222;DHT22;35047;37.588;-122.048;2023-04-01T21:06:24;27.30;42.40
49222;DHT22;35047;37.588;-122.048;2023-04-01T21:09:25;27.30;42.50
49222;DHT22;35047;37.588;-122.048;2023-04-01T21:26:13;27.80;42.00
49222;DHT22;35047;37.588;-122.048;2023-04-01T21:36:41;27.90;41.10
49222;DHT22;35047;37.588;-122.048;2023-04-01T21:39:35;27.90;42.10
49222;DHT22;35047;37.588;-122.048;2023-04-01T21:44:51;28.00;42.60
49222;DHT22;35047;37.588;-122.048;2023-04-01T21:47:45;28.20;41.10
49222;DHT22;35047;37.588;-122.048;2023-04-01T21:50:39;28.20;40.60
49222;DHT22;35047;37.588;-122.048;2023-04-01T21:56:19;28.30;41.00
49222;DHT22;35047;37.588;-122.048;2023-04-01T22:04:59;28.40;40.70
49222;DHT22;35047;37.588;-122.048;2023-04-01T22:10:52;28.20;40.30
49222;DHT22;35047;37.588;-122.048;2023-04-01T22:13:54;28.20;41.00
49222;DHT22;35047;37.588;-122.048;2023-04-01T22:16:41;28.10;40.60
49222;DHT22;35047;37.588;-122.048;2023-04-01T22:19:30;27.90;40.80
49222;DHT22;35047;37.588;-122.048;2023-04-01T22:22:30;27.80;40.90
49222;DHT22;35047;37.588;-122.048;2023-04-01T22:25:15;27.70;40.60
49222;DHT22;35047;37.588;-122.048;2023-04-01T22:27:52;27.70;40.70
49222;DHT22;35047;37.588;-122.048;2023-04-01T22:30:34;27.70;41.10
49222;DHT22;35047;37.588;-122.048;2023-04-01T22:33:14;27.70;40.40
49222;DHT22;35047;37.588;-122.048;2023-04-01T22:41:23;27.40;41.10
49222;DHT22;35047;37.588;-122.048;2023-04-01T22:43:57;27.30;41.50
49222;DHT22;35047;37.588;-122.048;2023-04-01T22:49:28;27.20;40.90
49222;DHT22;35047;37.588;-122.048;2023-04-01T22:52:16;27.00;41.20
49222;DHT22;35047;37.588;-122.048;2023-04-01T22:54:52;26.80;41.30
49222;DHT22;35047;37.588;-122.048;2023-04-01T23:03:15;26.20;42.50
49222;DHT22;35047;37.588;-122.048;2023-04-01T23:06:12;26.00;42.90
49222;DHT22;35047;37.588;-122.048;2023-04-01T23:36:09;25.50;44.10
49222;DHT22;35047;37.588;-122.048;2023-04-01T23:38:38;25.40;44.40
49222;DHT22;35047;37.588;-122.048;2023-04-01T23:41:16;25.40;44.80
49222;DHT22;35047;37.588;-122.048;2023-04-01T23:43:44;25.30;45.20
49222;DHT22;35047;37.588;-122.048;2023-04-01T23:46:12;25.20;45.40
49222;DHT22;35047;37.588;-122.048;2023-04-01T23:48:48;25.20;45.20
49222;DHT22;35047;37.588;-122.048;2023-04-01T23:51:27;25.20;45.20
49222;DHT22;35047;37.588;-122.048;2023-04-01T23:54:18;25.20;45.70
49222;DHT22;35047;37.588;-122.048;2023-04-01T23:56:51;25.10;46.40
49222;DHT22;35047;37.588;-122.048;2023-04-01T23:59:24;24.90;46.10
